createdAt,value
2023-06-09T00:02:02.743Z,19.57
2023-06-09T00:04:34.969Z,19.54
2023-06-09T00:07:04.773Z,19.50
2023-06-09T00:09:34.232Z,19.46
2023-06-09T00:12:04.620Z,19.42
2023-06-09T00:14:34.002Z,19.38
2023-06-09T00:17:04.393Z,19.33
2023-06-09T00:19:34.332Z,19.27
2023-06-09T00:22:04.270Z,19.21
2023-06-09T00:24:33.773Z,19.16
2023-06-09T00:27:02.943Z,19.16
2023-06-09T00:29:32.306Z,19.18
2023-06-09T00:32:01.634Z,19.22
2023-06-09T00:34:31.637Z,19.25
2023-06-09T00:37:01.320Z,19.25
2023-06-09T00:39:32.527Z,19.19
2023-06-09T00:42:02.052Z,19.19
2023-06-09T00:44:31.334Z,19.18
2023-06-09T00:47:01.226Z,19.16
2023-06-09T00:49:30.895Z,19.14
2023-06-09T00:52:00.872Z,19.12
2023-06-09T00:54:30.936Z,19.09
2023-06-09T00:57:00.409Z,19.07
2023-06-09T00:59:31.242Z,19.04
2023-06-09T01:02:00.790Z,19.03
2023-06-09T01:04:34.379Z,19.03
2023-06-09T01:07:22.210Z,19.03
2023-06-09T01:10:21.804Z,19.04
2023-06-09T01:13:04.143Z,19.04
2023-06-09T01:15:37.764Z,19.03
2023-06-09T01:18:10.124Z,19.00
2023-06-09T01:20:47.291Z,18.98
2023-06-09T01:23:39.159Z,18.95
2023-06-09T01:26:09.211Z,18.91
2023-06-09T01:28:39.539Z,18.88
2023-06-09T01:31:09.755Z,18.83
2023-06-09T01:33:39.660Z,18.79
2023-06-09T01:36:09.238Z,18.74
2023-06-09T01:38:39.374Z,18.73
2023-06-09T01:41:08.956Z,18.73
2023-06-09T01:43:38.254Z,18.73
2023-06-09T01:46:07.818Z,18.73
2023-06-09T01:48:58.541Z,18.71
2023-06-09T01:51:44.103Z,18.69
2023-06-09T01:54:18.523Z,18.66
2023-06-09T01:56:55.605Z,18.64
2023-06-09T01:59:29.116Z,18.61
2023-06-09T02:02:00.397Z,18.57
2023-06-09T02:04:30.106Z,18.55
2023-06-09T02:07:00.172Z,18.57
2023-06-09T02:09:29.568Z,18.60
2023-06-09T02:12:00.846Z,18.61
2023-06-09T02:14:34.446Z,18.61
2023-06-09T02:17:04.529Z,18.59
2023-06-09T02:19:37.267Z,18.54
2023-06-09T02:22:07.140Z,18.50
2023-06-09T02:24:36.757Z,18.44
2023-06-09T02:27:06.826Z,18.38
2023-06-09T02:29:36.771Z,18.33
2023-06-09T02:32:06.963Z,18.28
2023-06-09T02:34:36.623Z,18.26
2023-06-09T02:37:08.757Z,18.25
2023-06-09T02:39:38.049Z,18.26
2023-06-09T02:42:07.878Z,18.25
2023-06-09T02:44:38.649Z,18.26
2023-06-09T02:47:08.297Z,18.26
2023-06-09T02:49:37.973Z,18.24
2023-06-09T02:52:08.294Z,18.23
2023-06-09T02:54:38.461Z,18.23
2023-06-09T02:57:08.451Z,18.22
2023-06-09T02:59:38.645Z,18.25
2023-06-09T03:02:08.064Z,18.29
2023-06-09T03:04:37.544Z,18.35
2023-06-09T03:07:11.251Z,18.38
2023-06-09T03:09:44.306Z,18.40
2023-06-09T03:12:13.544Z,18.42
2023-06-09T03:14:43.374Z,18.42
2023-06-09T03:17:12.975Z,18.41
2023-06-09T03:19:42.331Z,18.40
2023-06-09T03:22:11.670Z,18.38
2023-06-09T03:24:42.260Z,18.37
2023-06-09T03:27:12.924Z,18.37
2023-06-09T03:29:42.272Z,18.38
2023-06-09T03:32:11.565Z,18.40
2023-06-09T03:34:42.350Z,18.41
2023-06-09T03:37:15.152Z,18.39
2023-06-09T03:39:44.604Z,18.40
2023-06-09T03:42:14.205Z,18.41
2023-06-09T03:44:43.568Z,18.40
2023-06-09T03:47:12.880Z,18.41
2023-06-09T03:49:42.171Z,18.40
2023-06-09T03:52:12.313Z,18.43
2023-06-09T03:54:41.572Z,18.46
2023-06-09T03:57:12.074Z,18.51
2023-06-09T03:59:42.343Z,18.57
2023-06-09T04:02:11.816Z,18.62
2023-06-09T04:04:41.655Z,18.65
2023-06-09T04:07:12.681Z,18.69
2023-06-09T04:09:42.493Z,18.70
2023-06-09T04:12:11.809Z,18.70
2023-06-09T04:14:41.172Z,18.72
2023-06-09T04:17:11.051Z,18.72
2023-06-09T04:19:40.926Z,18.74
2023-06-09T04:22:11.911Z,18.76
2023-06-09T04:24:42.037Z,18.80
2023-06-09T04:27:15.278Z,18.86
2023-06-09T04:29:46.858Z,18.91
2023-06-09T04:32:16.139Z,18.96
2023-06-09T04:34:49.084Z,18.98
2023-06-09T04:37:18.505Z,19.00
2023-06-09T04:39:48.984Z,19.01
2023-06-09T04:42:20.763Z,19.04
2023-06-09T04:44:51.082Z,19.08
2023-06-09T04:47:20.419Z,19.12
2023-06-09T04:49:51.396Z,19.17
2023-06-09T04:52:21.851Z,19.25
2023-06-09T04:54:52.627Z,19.32
2023-06-09T04:57:22.117Z,19.40
2023-06-09T04:59:54.481Z,19.47
2023-06-09T05:02:24.314Z,19.54
2023-06-09T05:04:53.705Z,19.58
2023-06-09T05:07:24.205Z,19.63
2023-06-09T05:09:53.404Z,19.67
2023-06-09T05:12:22.661Z,19.70
2023-06-09T05:14:52.425Z,19.73
2023-06-09T05:17:22.169Z,19.76
2023-06-09T05:19:51.421Z,19.79
2023-06-09T05:22:21.175Z,19.82
2023-06-09T05:24:50.849Z,19.88
2023-06-09T05:27:21.251Z,19.97
2023-06-09T05:29:50.585Z,20.02
2023-06-09T05:32:20.492Z,20.08
2023-06-09T05:34:50.709Z,20.16
2023-06-09T05:37:21.128Z,20.20
2023-06-09T05:39:50.478Z,20.24
2023-06-09T05:42:20.023Z,20.29
2023-06-09T05:44:50.357Z,20.32
2023-06-09T05:47:19.758Z,20.35
2023-06-09T05:49:49.564Z,20.39
2023-06-09T05:52:19.258Z,20.41
2023-06-09T05:54:49.933Z,20.43
2023-06-09T05:57:20.637Z,20.45
2023-06-09T05:59:50.022Z,20.48
2023-06-09T06:02:20.111Z,20.53
2023-06-09T06:04:49.693Z,20.59
2023-06-09T06:07:21.581Z,20.66
2023-06-09T06:09:50.876Z,20.74
2023-06-09T06:12:21.819Z,20.80
2023-06-09T06:14:51.319Z,20.86
2023-06-09T06:17:20.859Z,20.94
2023-06-09T06:19:54.498Z,20.99
2023-06-09T06:22:24.143Z,21.04
2023-06-09T06:24:54.113Z,21.09
2023-06-09T06:27:23.905Z,21.13
2023-06-09T06:29:53.212Z,21.16
2023-06-09T06:32:22.631Z,21.19
2023-06-09T06:34:51.903Z,21.23
2023-06-09T06:37:23.723Z,21.25
2023-06-09T06:39:52.942Z,21.26
2023-06-09T06:42:22.818Z,21.26
2023-06-09T06:44:52.214Z,21.28
2023-06-09T06:47:21.419Z,21.31
2023-06-09T06:49:50.836Z,21.34
2023-06-09T06:52:19.786Z,21.36
2023-06-09T06:54:48.947Z,21.40
2023-06-09T06:57:17.969Z,21.45
2023-06-09T06:59:47.431Z,21.50
2023-06-09T07:02:16.464Z,21.55
2023-06-09T07:04:45.578Z,21.61
2023-06-09T07:07:15.098Z,21.65
2023-06-09T07:09:44.209Z,21.68
2023-06-09T07:12:27.880Z,21.67
2023-06-09T07:15:03.213Z,21.69
2023-06-09T07:17:35.598Z,21.70
2023-06-09T07:20:05.728Z,21.73
2023-06-09T07:22:35.520Z,21.78
2023-06-09T07:25:05.316Z,21.80
2023-06-09T07:28:43.715Z,21.84
2023-06-09T07:31:25.204Z,21.88
2023-06-09T07:37:07.153Z,22.02
2023-06-09T07:39:38.936Z,22.08
2023-06-09T07:42:08.324Z,22.15
2023-06-09T07:44:37.754Z,22.22
2023-06-09T07:47:09.838Z,22.30
2023-06-09T07:49:41.106Z,22.37
2023-06-09T07:54:46.389Z,22.53
2023-06-09T07:57:17.224Z,22.59
2023-06-09T08:27:58.503Z,23.83
2023-06-09T08:30:30.571Z,23.80
2023-06-09T08:33:10.847Z,23.82
2023-06-09T08:39:01.420Z,23.86
2023-06-09T08:42:23.416Z,23.87
2023-06-09T09:03:51.092Z,24.57
2023-06-09T09:06:18.396Z,24.69
2023-06-09T09:08:45.684Z,24.75
2023-06-09T09:11:13.562Z,24.80
2023-06-09T09:13:43.349Z,24.87
2023-06-09T09:16:16.959Z,24.96
2023-06-09T09:18:47.175Z,25.04
2023-06-09T09:21:23.749Z,25.10
2023-06-09T09:24:00.012Z,25.15
2023-06-09T09:26:31.183Z,25.20
2023-06-09T09:29:07.930Z,25.23
2023-06-09T09:31:39.334Z,25.19
2023-06-09T09:34:11.413Z,25.16
2023-06-09T09:36:42.580Z,25.16
2023-06-09T09:39:09.725Z,25.19
2023-06-09T09:41:36.719Z,25.26
2023-06-09T09:44:03.929Z,25.34
2023-06-09T09:46:37.946Z,25.33
2023-06-09T09:49:07.172Z,25.43
2023-06-09T09:51:35.675Z,25.55
2023-06-09T09:54:03.374Z,25.74
2023-06-09T09:56:30.634Z,25.83
2023-06-09T09:58:57.925Z,25.85
2023-06-09T10:01:25.761Z,25.90
2023-06-09T10:03:56.908Z,25.93
2023-06-09T10:06:28.360Z,26.01
2023-06-09T10:08:56.440Z,26.10
2023-06-09T10:11:26.921Z,26.11
2023-06-09T10:13:53.921Z,26.20
2023-06-09T10:16:21.643Z,26.29
2023-06-09T10:18:48.803Z,26.33
2023-06-09T10:21:16.781Z,26.35
2023-06-09T10:23:43.772Z,26.35
2023-06-09T10:26:14.040Z,26.34
2023-06-09T10:28:40.938Z,26.32
2023-06-09T10:31:11.660Z,26.40
2023-06-09T10:33:42.567Z,26.41
2023-06-09T10:36:10.611Z,26.41
2023-06-09T10:38:43.442Z,26.44
2023-06-09T10:41:32.446Z,26.55
2023-06-09T10:43:59.930Z,26.61
2023-06-09T10:46:44.004Z,26.68
2023-06-09T10:49:39.816Z,26.82
2023-06-09T10:52:09.381Z,27.06
2023-06-09T10:54:36.357Z,27.17
2023-06-09T10:57:06.013Z,27.25
2023-06-09T10:59:32.944Z,27.16
2023-06-09T11:02:01.375Z,27.04
2023-06-09T11:04:41.920Z,26.92
2023-06-09T11:07:10.075Z,26.75
2023-06-09T11:09:37.988Z,26.61
2023-06-09T11:12:06.283Z,26.48
2023-06-09T11:14:45.663Z,26.34
2023-06-09T11:17:16.221Z,26.26
2023-06-09T11:19:43.314Z,26.18
2023-06-09T11:22:12.480Z,26.12
2023-06-09T11:24:49.684Z,26.08
2023-06-09T11:27:21.341Z,26.05
2023-06-09T11:30:09.919Z,26.02
2023-06-09T11:32:46.808Z,26.01
2023-06-09T11:35:26.192Z,25.96
2023-06-09T11:37:54.499Z,25.95
2023-06-09T11:40:21.944Z,25.96
2023-06-09T11:42:49.260Z,25.96
2023-06-09T11:45:16.348Z,25.93
2023-06-09T11:47:44.901Z,25.93
2023-06-09T11:50:16.313Z,25.93
2023-06-09T11:52:44.644Z,25.95
2023-06-09T11:55:15.793Z,25.99
2023-06-09T11:57:43.088Z,26.02
2023-06-09T12:00:15.377Z,26.04
2023-06-09T12:02:43.302Z,26.06
2023-06-09T12:05:11.051Z,26.07
2023-06-09T12:07:38.258Z,26.06
2023-06-09T12:10:06.082Z,26.08
2023-06-09T12:12:43.192Z,26.10
2023-06-09T12:15:11.668Z,26.14
2023-06-09T12:17:39.728Z,26.21
2023-06-09T12:20:32.307Z,26.28
2023-06-09T12:24:07.099Z,26.33
2023-06-09T12:26:42.725Z,26.44
2023-06-09T12:29:09.698Z,26.52
2023-06-09T12:31:47.333Z,26.61
2023-06-09T12:34:25.165Z,26.73
2023-06-09T12:36:52.482Z,26.79
2023-06-09T12:39:21.277Z,26.85
2023-06-09T12:41:48.301Z,26.93
2023-06-09T12:44:25.779Z,27.01
2023-06-09T12:46:56.230Z,27.09
2023-06-09T12:49:31.321Z,27.14
2023-06-09T12:52:03.545Z,27.17
2023-06-09T12:54:30.555Z,27.17
2023-06-09T12:56:57.626Z,27.13
2023-06-09T12:59:24.805Z,27.10
2023-06-09T13:01:53.172Z,27.09
2023-06-09T13:04:20.308Z,27.06
2023-06-09T13:06:47.546Z,27.03
2023-06-09T13:09:14.524Z,26.95
2023-06-09T13:11:42.929Z,26.89
2023-06-09T13:14:09.937Z,26.82
2023-06-09T13:16:37.059Z,26.76
2023-06-09T13:19:04.180Z,26.71
2023-06-09T13:21:43.770Z,26.71
2023-06-09T13:24:12.523Z,26.72
2023-06-09T13:26:39.776Z,26.80
2023-06-09T13:29:07.242Z,26.93
2023-06-09T13:31:34.388Z,26.99
2023-06-09T13:34:01.408Z,26.99
2023-06-09T13:36:28.571Z,26.97
2023-06-09T13:38:55.725Z,26.91
2023-06-09T13:41:23.017Z,26.85
2023-06-09T13:43:51.025Z,26.82
2023-06-09T13:46:18.821Z,26.80
2023-06-09T13:48:45.984Z,26.96
2023-06-09T13:51:13.056Z,27.15
2023-06-09T13:53:40.942Z,27.34
2023-06-09T13:56:08.029Z,27.60
2023-06-09T13:58:36.839Z,27.90
2023-06-09T14:01:04.249Z,28.19
2023-06-09T14:03:31.390Z,28.43
2023-06-09T14:05:58.541Z,28.56
2023-06-09T14:08:26.056Z,28.49
2023-06-09T14:10:52.998Z,28.34
2023-06-09T14:13:19.906Z,28.12
2023-06-09T14:15:46.899Z,27.88
2023-06-09T14:18:14.843Z,27.66
2023-06-09T14:20:41.754Z,27.40
2023-06-09T14:23:09.529Z,27.13
2023-06-09T14:25:36.632Z,26.86
2023-06-09T14:28:04.079Z,26.58
2023-06-09T14:30:31.185Z,26.31
2023-06-09T14:32:58.652Z,26.11
2023-06-09T14:35:27.354Z,25.93
2023-06-09T14:37:57.599Z,25.76
2023-06-09T14:40:26.299Z,25.58
2023-06-09T14:42:53.378Z,25.39
2023-06-09T14:45:22.356Z,25.26
2023-06-09T14:47:54.480Z,25.14
2023-06-09T14:50:24.011Z,24.99
2023-06-09T14:52:52.704Z,24.89
2023-06-09T14:55:23.349Z,24.75
2023-06-09T14:57:52.000Z,24.61
2023-06-09T15:00:23.756Z,24.50
2023-06-09T15:02:52.310Z,24.40
2023-06-09T15:05:25.240Z,24.33
2023-06-09T15:07:56.234Z,24.26
2023-06-09T15:10:42.562Z,24.21
2023-06-09T15:13:10.275Z,24.19
2023-06-09T15:15:37.569Z,24.18
2023-06-09T15:18:06.495Z,24.17
2023-06-09T15:20:35.135Z,24.15
2023-06-09T15:23:04.325Z,24.15
2023-06-09T15:25:34.206Z,24.17
2023-06-09T15:28:03.847Z,24.18
2023-06-09T15:30:32.654Z,24.21
2023-06-09T15:33:06.116Z,24.21
2023-06-09T15:35:38.205Z,24.20
2023-06-09T15:38:07.260Z,24.19
2023-06-09T15:40:39.082Z,24.20
2023-06-09T15:43:06.064Z,24.19
2023-06-09T15:45:42.649Z,24.17
2023-06-09T15:48:14.517Z,24.17
2023-06-09T15:50:46.976Z,24.15
2023-06-09T15:53:20.300Z,24.14
2023-06-09T15:55:48.949Z,24.12
2023-06-09T15:58:15.880Z,24.12
2023-06-09T16:00:43.771Z,24.09
2023-06-09T16:03:10.800Z,24.09
2023-06-09T16:05:39.853Z,24.08
2023-06-09T16:08:08.894Z,24.06
2023-06-09T16:10:38.302Z,24.06
2023-06-09T16:13:06.189Z,24.03
2023-06-09T16:15:35.061Z,24.01
2023-06-09T16:18:04.434Z,24.00
2023-06-09T16:20:33.487Z,23.96
2023-06-09T16:23:01.967Z,23.96
2023-06-09T16:25:30.251Z,23.94
2023-06-09T16:27:57.499Z,23.94
2023-06-09T16:30:24.842Z,23.92
2023-06-09T16:32:51.842Z,23.87
2023-06-09T16:35:19.008Z,23.83
2023-06-09T16:37:45.984Z,23.82
2023-06-09T16:40:13.085Z,23.79
2023-06-09T16:42:39.994Z,23.78
2023-06-09T16:45:07.467Z,23.77
2023-06-09T16:47:34.949Z,23.75
2023-06-09T16:50:02.062Z,23.72
2023-06-09T16:52:29.361Z,23.70
2023-06-09T16:54:56.281Z,23.68
2023-06-09T16:57:23.355Z,23.66
2023-06-09T16:59:50.450Z,23.64
2023-06-09T17:02:17.495Z,23.61
2023-06-09T17:04:44.525Z,23.59
2023-06-09T17:07:11.478Z,23.60
2023-06-09T17:09:38.371Z,23.61
2023-06-09T17:12:06.961Z,23.59
2023-06-09T17:14:34.052Z,23.59
2023-06-09T17:17:01.020Z,23.58
2023-06-09T17:19:28.095Z,23.57
2023-06-09T17:21:55.025Z,23.57
2023-06-09T17:24:22.281Z,23.57
2023-06-09T17:26:49.360Z,23.56
2023-06-09T17:29:16.396Z,23.55
2023-06-09T17:31:43.427Z,23.54
2023-06-09T17:34:10.531Z,23.55
2023-06-09T17:36:37.568Z,23.56
2023-06-09T17:39:04.706Z,23.55
2023-06-09T17:41:31.595Z,23.55
2023-06-09T17:44:01.710Z,23.54
2023-06-09T17:46:29.446Z,23.54
2023-06-09T17:48:56.486Z,23.53
2023-06-09T17:51:23.505Z,23.53
2023-06-09T17:53:53.219Z,23.53
2023-06-09T17:56:21.354Z,23.52
2023-06-09T17:58:48.930Z,23.49
2023-06-09T18:01:16.158Z,23.48
2023-06-09T18:03:43.381Z,23.45
2023-06-09T18:06:10.383Z,23.46
2023-06-09T18:08:37.486Z,23.44
2023-06-09T18:11:04.687Z,23.43
2023-06-09T18:13:32.564Z,23.42
2023-06-09T18:15:59.641Z,23.41
2023-06-09T18:18:26.949Z,23.38
2023-06-09T18:20:53.840Z,23.36
2023-06-09T18:23:20.875Z,23.33
2023-06-09T18:25:49.106Z,23.30
2023-06-09T18:28:16.492Z,23.28
2023-06-09T18:30:49.263Z,23.25
2023-06-09T18:33:17.386Z,23.22
2023-06-09T18:35:45.298Z,23.19
2023-06-09T18:38:12.472Z,23.14
2023-06-09T18:40:39.575Z,23.10
2023-06-09T18:43:06.708Z,23.06
2023-06-09T18:45:33.759Z,23.02
2023-06-09T18:48:01.079Z,23.00
2023-06-09T18:50:28.287Z,22.97
2023-06-09T18:52:55.577Z,22.95
2023-06-09T18:55:22.510Z,22.93
2023-06-09T18:57:49.676Z,22.88
2023-06-09T19:00:16.929Z,22.82
2023-06-09T19:02:44.148Z,22.77
2023-06-09T19:05:11.477Z,22.72
2023-06-09T19:07:38.894Z,22.68
2023-06-09T19:10:07.128Z,22.64
2023-06-09T19:12:34.412Z,22.60
2023-06-09T19:15:04.009Z,22.56
2023-06-09T19:17:31.343Z,22.52
2023-06-09T19:19:58.513Z,22.46
2023-06-09T19:22:26.281Z,22.43
2023-06-09T19:24:53.304Z,22.40
2023-06-09T19:27:20.523Z,22.38
2023-06-09T19:29:48.974Z,22.35
2023-06-09T19:32:17.335Z,22.34
2023-06-09T19:34:44.543Z,22.31
2023-06-09T19:37:11.695Z,22.25
2023-06-09T19:39:39.010Z,22.23
2023-06-09T19:42:06.091Z,22.18
2023-06-09T19:44:33.161Z,22.15
2023-06-09T19:47:00.190Z,22.11
2023-06-09T19:49:27.323Z,22.09
2023-06-09T19:51:54.426Z,22.05
2023-06-09T19:54:22.419Z,22.03
2023-06-09T19:56:50.078Z,22.01
2023-06-09T19:59:17.686Z,21.98
2023-06-09T20:01:45.228Z,21.95
2023-06-09T20:04:13.120Z,21.93
2023-06-09T20:06:41.454Z,21.91
2023-06-09T20:09:09.435Z,21.88
2023-06-09T20:11:37.470Z,21.85
2023-06-09T20:14:05.362Z,21.81
2023-06-09T20:16:33.882Z,21.76
2023-06-09T20:19:03.015Z,21.74
2023-06-09T20:21:30.053Z,21.73
2023-06-09T20:23:57.029Z,21.73
2023-06-09T20:26:24.057Z,21.70
2023-06-09T20:28:51.011Z,21.69
2023-06-09T20:31:18.015Z,21.66
2023-06-09T20:33:45.536Z,21.66
2023-06-09T20:36:12.681Z,21.65
2023-06-09T20:38:39.716Z,21.65
2023-06-09T20:41:06.688Z,21.64
2023-06-09T20:43:34.261Z,21.63
2023-06-09T20:46:01.220Z,21.63
2023-06-09T20:48:29.459Z,21.61
2023-06-09T20:50:56.894Z,21.60
2023-06-09T20:53:24.497Z,21.59
2023-06-09T20:55:51.641Z,21.58
2023-06-09T20:58:19.052Z,21.56
2023-06-09T21:00:49.570Z,21.55
2023-06-09T21:03:17.619Z,21.53
2023-06-09T21:05:45.138Z,21.53
2023-06-09T21:08:12.541Z,21.52
2023-06-09T21:10:40.953Z,21.51
2023-06-09T21:13:07.854Z,21.51
2023-06-09T21:15:35.139Z,21.51
2023-06-09T21:18:03.302Z,21.52
2023-06-09T21:20:33.254Z,21.52
2023-06-09T21:23:00.839Z,21.50
2023-06-09T21:25:32.400Z,21.50
2023-06-09T21:28:04.179Z,21.48
2023-06-09T21:30:32.940Z,21.47
2023-06-09T21:33:00.499Z,21.46
2023-06-09T21:35:27.630Z,21.46
2023-06-09T21:37:55.800Z,21.45
2023-06-09T21:40:22.746Z,21.44
2023-06-09T21:42:49.730Z,21.44
2023-06-09T21:45:16.806Z,21.44
2023-06-09T21:47:43.850Z,21.43
2023-06-09T21:50:10.867Z,21.41
2023-06-09T21:52:37.808Z,21.40
2023-06-09T21:55:05.694Z,21.38
2023-06-09T21:57:33.015Z,21.37
2023-06-09T22:00:00.644Z,21.35
2023-06-09T22:02:28.045Z,21.34
2023-06-09T22:04:55.205Z,21.32
2023-06-09T22:07:22.570Z,21.29
2023-06-09T22:09:49.509Z,21.27
2023-06-09T22:12:17.133Z,21.25
2023-06-09T22:14:44.543Z,21.24
2023-06-09T22:17:11.948Z,21.23
2023-06-09T22:19:39.028Z,21.21
2023-06-09T22:22:06.946Z,21.21
2023-06-09T22:24:33.944Z,21.20
2023-06-09T22:27:02.243Z,21.20
2023-06-09T22:29:29.410Z,21.19
2023-06-09T22:31:56.657Z,21.18
2023-06-09T22:34:23.858Z,21.17
2023-06-09T22:36:50.772Z,21.16
2023-06-09T22:39:18.702Z,21.16
2023-06-09T22:41:46.314Z,21.14
2023-06-09T22:44:13.376Z,21.13
2023-06-09T22:46:40.340Z,21.13
2023-06-09T22:49:08.110Z,21.11
2023-06-09T22:51:35.198Z,21.11
2023-06-09T22:54:03.907Z,21.10
2023-06-09T22:56:31.134Z,21.09
2023-06-09T22:58:58.059Z,21.06
2023-06-09T23:01:26.952Z,21.03
2023-06-09T23:03:53.874Z,21.01
2023-06-09T23:06:21.518Z,21.00
2023-06-09T23:08:48.524Z,21.02
2023-06-09T23:11:15.720Z,21.06
2023-06-09T23:13:42.681Z,21.09
2023-06-09T23:16:10.010Z,21.12
2023-06-09T23:18:39.299Z,21.13
2023-06-09T23:21:06.398Z,21.14
2023-06-09T23:23:34.575Z,21.15
2023-06-09T23:26:02.122Z,21.14
2023-06-09T23:28:29.558Z,21.14
2023-06-09T23:30:56.584Z,21.13
2023-06-09T23:33:25.457Z,21.11
2023-06-09T23:35:53.616Z,21.08
2023-06-09T23:38:20.930Z,21.07
2023-06-09T23:40:47.865Z,21.05
2023-06-09T23:43:14.846Z,21.02
2023-06-09T23:45:41.887Z,21.00
2023-06-09T23:48:08.943Z,20.96
2023-06-09T23:50:35.903Z,20.94
2023-06-09T23:53:08.312Z,20.93
2023-06-09T23:55:36.791Z,20.91
2023-06-09T23:58:03.778Z,20.91
